Time;durP1;ratioP1;P1;durP2;ratioP2;P2;SDS_P1;SDS_P2;PMS_P1;PMS_P2;Temp;Humidity;BMP_temperature;BMP_pressure;BME280_temperature;BME280_humidity;BME280_pressure;Samples;Min_cycle;Max_cycle;Signal;HPM_P1;HPM_P2
2021/12/24 00:02:03;;;;;;;1999.90;999.90;;;;;;;-2.25;100.00;161802.25;5041913;28;20072;-66
2021/12/24 00:04:30;;;;;;;1999.90;999.90;;;;;;;-2.20;100.00;161815.91;5036478;28;20076;-66
2021/12/24 00:06:56;;;;;;;1999.90;999.90;;;;;;;-2.15;100.00;161828.19;5026832;28;20045;-67
2021/12/24 00:09:26;;;;;;;1999.90;999.90;;;;;;;-2.03;100.00;161859.59;5025963;28;20216;-66
2021/12/24 00:11:59;;;;;;;1999.90;999.90;;;;;;;-2.19;100.00;161817.25;5025994;28;20134;-66
2021/12/24 00:14:27;;;;;;;1999.90;999.90;;;;;;;-2.08;100.00;161845.91;5032414;28;20127;-65
2021/12/24 00:16:56;;;;;;;1999.90;999.90;;;;;;;-2.10;100.00;161840.47;5042320;28;20138;-66
2021/12/24 00:35:40;;;;;;;1999.90;999.90;;;;;;;-2.13;100.00;161833.63;5032695;28;20099;-66
2021/12/24 00:38:08;;;;;;;1999.90;999.90;;;;;;;-1.97;100.00;161875.97;5029630;28;20138;-66
2021/12/24 00:40:42;;;;;;;1999.90;999.90;;;;;;;-2.00;100.00;161867.78;5033010;28;20445;-66
2021/12/24 00:43:10;;;;;;;1999.90;999.90;;;;;;;-1.91;100.00;161891.00;5016982;28;20309;-66
2021/12/24 00:45:40;;;;;;;1999.90;999.90;;;;;;;-2.22;100.00;161810.47;5019433;28;20081;-66
2021/12/24 00:48:09;;;;;;;1999.90;999.90;;;;;;;-2.19;100.00;161818.66;5016251;28;20389;-66
2021/12/24 00:55:54;;;;;;;1999.90;999.90;;;;;;;-2.09;100.00;161843.22;4979795;28;1083812;-64
2021/12/24 00:58:21;;;;;;;1999.90;999.90;;;;;;;-1.99;100.00;161870.53;5020310;28;21064;-65
2021/12/24 01:00:47;;;;;;;1999.90;999.90;;;;;;;-2.32;100.00;161783.19;5017832;28;20046;-64
2021/12/24 01:03:14;;;;;;;1999.90;999.90;;;;;;;-2.25;100.00;161802.25;5018601;28;20056;-65
2021/12/24 01:05:42;;;;;;;1999.90;999.90;;;;;;;-2.22;100.00;161809.09;5033075;28;20096;-63
2021/12/24 01:08:10;;;;;;;1999.90;999.90;;;;;;;-2.26;100.00;161799.56;5028909;28;20076;-64
2021/12/24 01:10:41;;;;;;;1999.90;999.90;;;;;;;-2.31;100.00;161785.88;5041091;28;20162;-65
2021/12/24 01:13:07;;;;;;;1999.90;999.90;;;;;;;-2.09;100.00;161844.56;5042551;28;20088;-65
2021/12/24 01:15:38;;;;;;;1999.90;999.90;;;;;;;-2.10;100.00;161840.47;5050649;28;20138;-66
2021/12/24 01:18:20;;;;;;;1999.90;999.90;;;;;;;-2.31;100.00;161787.28;5042888;28;20497;-66
2021/12/24 01:20:51;;;;;;;1999.90;999.90;;;;;;;-2.19;100.00;161817.25;5033399;28;20085;-65
2021/12/24 01:26:10;;;;;;;1999.90;999.90;;;;;;;-2.17;100.00;161824.09;5043195;28;19976;-65
2021/12/24 01:44:59;;;;;;;1999.90;999.90;;;;;;;-1.82;100.00;161916.91;5041357;28;20072;-66
2021/12/24 01:47:26;;;;;;;1999.90;999.90;;;;;;;-1.71;100.00;161944.22;5038083;28;20485;-66
2021/12/24 01:49:53;;;;;;;1999.90;999.90;;;;;;;-1.72;100.00;161941.53;5048645;28;20052;-65
2021/12/24 01:52:20;;;;;;;1999.90;999.90;;;;;;;-1.83;100.00;161914.22;5045043;28;20052;-66
2021/12/24 01:54:46;;;;;;;1999.90;999.90;;;;;;;-1.85;100.00;161908.72;5042404;28;20138;-65
2021/12/24 01:57:14;;;;;;;1999.90;999.90;;;;;;;-1.78;100.00;161927.84;5045973;28;20077;-65
2021/12/24 01:59:41;;;;;;;1999.90;999.90;;;;;;;-1.79;100.00;161925.16;5048777;28;20045;-65
2021/12/24 02:02:08;;;;;;;1999.90;999.90;;;;;;;-1.70;100.00;161946.97;5039241;28;20108;-65
2021/12/24 02:04:35;;;;;;;1999.90;999.90;;;;;;;-1.65;100.00;161960.63;5046691;28;20053;-65
2021/12/24 02:07:02;;;;;;;1999.90;999.90;;;;;;;-1.63;100.00;161966.09;5036064;28;20049;-65
2021/12/24 02:09:29;;;;;;;1999.90;999.90;;;;;;;-1.43;100.00;162020.72;5039182;28;20158;-65
2021/12/24 02:11:57;;;;;;;1999.90;999.90;;;;;;;-1.46;100.00;162012.53;5044748;28;20106;-65
2021/12/24 02:14:31;;;;;;;1999.90;999.90;;;;;;;-1.14;100.00;162095.84;5034999;28;20081;-65
2021/12/24 02:31:01;;;;;;;1999.90;999.90;;;;;;;-1.20;100.00;162079.44;5021445;28;20163;-65
2021/12/24 02:33:27;;;;;;;1999.90;999.90;;;;;;;-1.18;100.00;162086.25;5043296;28;20073;-65
2021/12/24 02:35:54;;;;;;;1999.90;999.90;;;;;;;-1.28;100.00;162058.91;5047956;28;20056;-65
2021/12/24 02:38:21;;;;;;;1999.90;999.90;;;;;;;-1.11;100.00;162105.38;5036606;28;20583;-65
2021/12/24 02:40:48;;;;;;;1999.90;999.90;;;;;;;-1.04;100.00;162121.75;5042489;28;20219;-65
2021/12/24 02:43:19;;;;;;;1999.90;999.90;;;;;;;-0.96;100.00;162143.63;5038978;28;20059;-65
2021/12/24 02:45:47;;;;;;;1999.90;999.90;;;;;;;-0.68;100.00;162217.44;5036892;28;20088;-65
2021/12/24 02:53:57;;;;;;;1999.90;999.90;;;;;;;-0.70;100.00;162213.28;5046640;28;20085;-65
2021/12/24 02:56:36;;;;;;;1999.90;999.90;;;;;;;-0.48;100.00;162272.06;5041897;28;20045;-65
2021/12/24 02:59:13;;;;;;;1999.90;999.90;;;;;;;-0.33;100.00;162310.34;5037650;28;20076;-65
2021/12/24 03:01:45;;;;;;;1999.90;999.90;;;;;;;-0.38;100.00;162298.03;5047961;28;20137;-65
2021/12/24 03:04:13;;;;;;;1999.90;999.90;;;;;;;-0.57;100.00;162247.47;5036638;28;20136;-65
2021/12/24 03:06:44;;;;;;;1999.90;999.90;;;;;;;-0.28;100.00;162324.00;5042441;28;20052;-65
2021/12/24 03:09:14;;;;;;;1999.90;999.90;;;;;;;-0.49;100.00;162269.34;5049834;28;20514;-65
2021/12/24 03:11:43;;;;;;;1999.90;999.90;;;;;;;-0.43;100.00;162285.75;5035283;28;20081;-65
2021/12/24 03:14:10;;;;;;;1999.90;999.90;;;;;;;-0.41;100.00;162289.84;5044346;28;20107;-65
2021/12/24 03:16:39;;;;;;;1999.90;999.90;;;;;;;-0.21;100.00;162344.53;5046654;28;20128;-65
2021/12/24 03:19:08;;;;;;;1999.90;999.90;;;;;;;-0.17;100.00;162352.72;5043446;28;20048;-65
2021/12/24 03:21:50;;;;;;;1999.90;999.90;;;;;;;0.00;100.00;162399.22;5043610;28;20076;-65
2021/12/24 03:26:48;;;;;;;1999.90;999.90;;;;;;;0.26;100.00;162468.91;5042666;28;20362;-65
2021/12/24 03:29:17;;;;;;;1999.90;999.90;;;;;;;0.38;100.00;162499.03;5042602;28;20057;-65
2021/12/24 03:31:45;;;;;;;1999.90;999.90;;;;;;;0.08;100.00;162419.72;5047170;28;20465;-65
2021/12/24 03:34:16;;;;;;;1999.90;999.90;;;;;;;0.47;100.00;162524.97;5044157;28;20077;-65
2021/12/24 03:36:43;;;;;;;1999.90;999.90;;;;;;;0.27;100.00;162471.66;5043672;28;20180;-65
2021/12/24 03:39:10;;;;;;;1999.90;999.90;;;;;;;-0.07;100.00;162381.41;5042878;28;20397;-65
2021/12/24 03:41:37;;;;;;;1999.90;999.90;;;;;;;0.35;100.00;162492.16;5034698;28;20461;-65
2021/12/24 03:44:06;;;;;;;1999.90;999.90;;;;;;;0.27;100.00;162471.66;5043812;28;20395;-65
2021/12/24 03:46:43;;;;;;;1999.90;999.90;;;;;;;0.32;100.00;162483.97;5035684;28;20127;-65
2021/12/24 03:49:19;;;;;;;1999.90;999.90;;;;;;;0.55;100.00;162544.13;5035544;28;20088;-66
2021/12/24 03:51:58;;;;;;;1999.90;999.90;;;;;;;0.12;100.00;162430.63;5046698;28;20089;-65
2021/12/24 03:57:10;;;;;;;1999.90;999.90;;;;;;;0.20;100.00;162452.53;5042795;28;20045;-65
2021/12/24 03:59:36;;;;;;;1999.90;999.90;;;;;;;0.16;100.00;162441.56;5038153;28;20098;-65
2021/12/24 04:02:03;;;;;;;1999.90;999.90;;;;;;;0.38;100.00;162500.38;5043568;28;20134;-65
2021/12/24 04:04:30;;;;;;;1999.90;999.90;;;;;;;0.26;100.00;162468.91;5036636;28;20361;-65
2021/12/24 04:06:56;;;;;;;1999.90;999.90;;;;;;;0.01;100.00;162401.91;5034205;28;20434;-65
2021/12/24 04:09:26;;;;;;;1999.90;999.90;;;;;;;0.24;100.00;162463.47;5035241;28;20115;-65
2021/12/24 04:11:52;;;;;;;1999.90;999.90;;;;;;;0.20;100.00;162451.16;5038092;28;20096;-64
2021/12/24 04:14:22;;;;;;;1999.90;999.90;;;;;;;0.48;100.00;162526.38;5036276;28;20132;-65
2021/12/24 04:16:49;;;;;;;1999.90;999.90;;;;;;;0.58;100.00;162553.72;5038183;28;20077;-65
2021/12/24 04:24:56;;;;;;;1999.90;999.90;;;;;;;0.77;100.00;162602.94;5035417;28;20762;-65
2021/12/24 04:27:29;;;;;;;1999.90;999.90;;;;;;;1.02;100.00;162671.34;5041995;28;20138;-66
2021/12/24 04:30:08;;;;;;;1999.90;999.90;;;;;;;0.92;100.00;162642.63;5041805;28;20211;-66
2021/12/24 04:33:26;;;;;;;1999.90;999.90;;;;;;;1.01;100.00;162668.63;5033916;28;20083;-66
2021/12/24 04:51:23;;;;;;;1999.90;999.90;;;;;;;0.75;100.00;162597.50;5041332;28;20077;-67
2021/12/24 05:04:48;;;;;;;1999.90;999.90;;;;;;;0.83;100.00;162619.34;5049555;28;20077;-67
2021/12/24 05:10:03;;;;;;;1999.90;999.90;;;;;;;0.94;100.00;162649.47;5042573;28;20063;-67
2021/12/24 05:12:33;;;;;;;1999.90;999.90;;;;;;;0.84;100.00;162623.47;5039707;28;20437;-67
2021/12/24 05:15:07;;;;;;;1999.90;999.90;;;;;;;0.82;100.00;162618.00;5037833;28;20081;-67
2021/12/24 05:17:50;;;;;;;1999.90;999.90;;;;;;;0.79;100.00;162609.81;5041111;28;20146;-67
2021/12/24 05:23:02;;;;;;;1999.90;999.90;;;;;;;0.91;100.00;162639.88;5039018;28;20080;-67
2021/12/24 05:25:29;;;;;;;1999.90;999.90;;;;;;;0.91;100.00;162641.28;5042188;28;20452;-67
2021/12/24 05:27:56;;;;;;;1999.90;999.90;;;;;;;0.85;100.00;162624.88;5047033;28;21117;-67
2021/12/24 05:30:24;;;;;;;1999.90;999.90;;;;;;;0.99;100.00;162663.13;5034971;28;20080;-67
2021/12/24 05:32:51;;;;;;;1999.90;999.90;;;;;;;0.70;100.00;162586.53;5043006;28;20130;-67
2021/12/24 05:35:17;;;;;;;1999.90;999.90;;;;;;;0.78;100.00;162605.69;5040091;28;20041;-67
2021/12/24 05:37:44;;;;;;;1999.90;999.90;;;;;;;0.89;100.00;162635.78;5045167;28;20076;-67
2021/12/24 05:40:10;;;;;;;1999.90;999.90;;;;;;;1.02;100.00;162671.34;5043559;28;20315;-67
2021/12/24 05:42:37;;;;;;;1999.90;999.90;;;;;;;0.76;100.00;162600.19;5041220;28;20126;-67
2021/12/24 05:45:06;;;;;;;1999.90;999.90;;;;;;;0.92;100.00;162642.63;5038333;28;20077;-68
2021/12/24 05:47:33;;;;;;;1999.90;999.90;;;;;;;0.90;100.00;162638.53;5038805;28;20045;-68
2021/12/24 05:50:00;;;;;;;1999.90;999.90;;;;;;;0.93;100.00;162646.72;5046671;28;21022;-69
2021/12/24 05:52:28;;;;;;;1999.90;999.90;;;;;;;1.03;100.00;162674.09;5032447;28;20062;-69
2021/12/24 05:54:55;;;;;;;1999.90;999.90;;;;;;;0.93;100.00;162646.72;5044394;28;20397;-70
2021/12/24 05:57:22;;;;;;;1999.90;999.90;;;;;;;1.01;100.00;162668.63;5040405;28;20465;-70
2021/12/24 05:59:49;;;;;;;1999.90;999.90;;;;;;;1.04;100.00;162676.84;5044364;28;20517;-70
2021/12/24 06:02:16;;;;;;;1999.90;999.90;;;;;;;1.17;100.00;162709.66;5037134;28;20080;-70
2021/12/24 06:04:42;;;;;;;1999.90;999.90;;;;;;;1.25;100.00;162731.59;5038132;28;20041;-70
2021/12/24 06:07:09;;;;;;;1999.90;999.90;;;;;;;1.56;100.00;162815.06;5037281;28;20083;-70
2021/12/24 06:09:35;;;;;;;1999.90;999.90;;;;;;;1.44;100.00;162780.81;5042261;28;20088;-70
2021/12/24 06:12:02;;;;;;;1999.90;999.90;;;;;;;1.13;100.00;162700.13;5044132;28;20087;-70
2021/12/24 06:14:29;;;;;;;1999.90;999.90;;;;;;;1.32;100.00;162750.69;5031777;28;20049;-69
2021/12/24 06:17:01;;;;;;;1999.90;999.90;;;;;;;1.42;100.00;162776.72;5041137;28;20080;-70
2021/12/24 06:19:32;;;;;;;1999.90;999.90;;;;;;;1.48;100.00;162793.13;5035990;28;20064;-70
2021/12/24 06:21:59;;;;;;;1999.90;999.90;;;;;;;1.57;100.00;162816.41;5041942;28;20136;-70
2021/12/24 06:24:25;;;;;;;1999.90;999.90;;;;;;;1.40;100.00;162772.63;5045083;28;20453;-70
2021/12/24 06:26:52;;;;;;;1999.90;999.90;;;;;;;1.19;100.00;162716.53;5041687;28;20041;-70
2021/12/24 06:29:20;;;;;;;1999.90;999.90;;;;;;;1.50;100.00;162797.25;5044647;28;20110;-70
2021/12/24 06:31:48;;;;;;;1999.90;999.90;;;;;;;1.27;100.00;162737.03;5036407;28;20094;-70
2021/12/24 06:34:16;;;;;;;1999.90;999.90;;;;;;;1.16;100.00;162706.91;5038626;28;20049;-70
2021/12/24 06:36:44;;;;;;;1999.90;999.90;;;;;;;1.05;100.00;162679.53;5041007;28;20104;-71
2021/12/24 06:39:12;;;;;;;1999.90;999.90;;;;;;;1.51;100.00;162801.34;5043345;28;20461;-71
2021/12/24 06:41:38;;;;;;;1999.90;999.90;;;;;;;1.46;100.00;162786.28;5037149;28;20283;-71
2021/12/24 06:44:09;;;;;;;1999.90;999.90;;;;;;;1.39;100.00;162768.50;5038559;28;20085;-71
2021/12/24 06:46:37;;;;;;;1999.90;999.90;;;;;;;1.56;100.00;162815.06;5038609;28;20106;-71
2021/12/24 06:49:04;;;;;;;1999.90;999.90;;;;;;;1.60;100.00;162823.28;5037157;28;20104;-71
2021/12/24 06:51:30;;;;;;;1999.90;999.90;;;;;;;1.56;100.00;162815.06;5034951;28;20386;-71
2021/12/24 06:53:57;;;;;;;1999.90;999.90;;;;;;;1.52;100.00;162802.69;5042441;28;20084;-71
2021/12/24 06:56:24;;;;;;;1999.90;999.90;;;;;;;1.56;100.00;162813.66;5040622;28;20092;-71
2021/12/24 06:58:51;;;;;;;1999.90;999.90;;;;;;;1.46;100.00;162786.28;5042345;28;20079;-71
2021/12/24 07:01:18;;;;;;;1999.90;999.90;;;;;;;1.40;100.00;162772.63;5032487;28;20068;-70
2021/12/24 07:03:44;;;;;;;1999.90;999.90;;;;;;;1.44;100.00;162782.19;5034394;28;20602;-71
2021/12/24 07:06:11;;;;;;;1999.90;999.90;;;;;;;1.56;100.00;162815.06;5039140;28;20052;-71
2021/12/24 07:08:38;;;;;;;1999.90;999.90;;;;;;;1.66;100.00;162841.03;5035651;28;20080;-71
2021/12/24 07:11:05;;;;;;;1999.90;999.90;;;;;;;1.62;100.00;162830.06;5042278;28;20080;-71
2021/12/24 07:13:32;;;;;;;1999.90;999.90;;;;;;;1.72;100.00;162857.47;5037336;28;20075;-71
2021/12/24 07:15:58;;;;;;;1999.90;999.90;;;;;;;1.69;100.00;162849.25;5036441;28;20091;-72
2021/12/24 07:18:25;;;;;;;1999.90;999.90;;;;;;;1.87;100.00;162895.81;5040866;28;20057;-71
2021/12/24 07:20:51;;;;;;;1999.90;999.90;;;;;;;1.78;100.00;162871.19;5042984;28;20081;-72
2021/12/24 07:23:18;;;;;;;1999.90;999.90;;;;;;;1.98;100.00;162925.94;5039949;28;20053;-72
2021/12/24 07:25:46;;;;;;;1999.90;999.90;;;;;;;1.93;100.00;162912.22;5040183;28;20169;-69
2021/12/24 07:28:12;;;;;;;1999.90;999.90;;;;;;;1.65;100.00;162838.28;5034605;28;20437;-70
2021/12/24 07:30:39;;;;;;;1999.90;999.90;;;;;;;1.65;100.00;162836.94;5037421;28;20404;-70
2021/12/24 07:33:06;;;;;;;1999.90;999.90;;;;;;;1.44;100.00;162782.19;5042556;28;20102;-69
2021/12/24 07:35:32;;;;;;;1999.90;999.90;;;;;;;1.54;100.00;162809.56;5040059;28;20115;-70
2021/12/24 07:37:59;;;;;;;1999.90;999.90;;;;;;;1.37;100.00;162763.00;5032318;28;20041;-70
2021/12/24 07:40:26;;;;;;;1999.90;999.90;;;;;;;1.30;100.00;162745.25;5035715;28;20457;-69
2021/12/24 07:42:55;;;;;;;1999.90;999.90;;;;;;;1.31;100.00;162746.59;5043132;28;20048;-70
2021/12/24 07:45:21;;;;;;;1999.90;999.90;;;;;;;1.51;100.00;162801.34;5042536;28;20088;-70
2021/12/24 07:48:05;;;;;;;1999.90;999.90;;;;;;;1.47;100.00;162790.38;5044579;28;20127;-70
2021/12/24 07:52:59;;;;;;;1999.90;999.90;;;;;;;1.53;100.00;162805.44;5039414;28;20084;-71
2021/12/24 07:55:26;;;;;;;1999.90;999.90;;;;;;;1.63;100.00;162831.47;5042865;28;20264;-72
2021/12/24 07:57:53;;;;;;;1999.90;999.90;;;;;;;1.57;100.00;162816.41;5037976;28;20252;-72
2021/12/24 08:00:23;;;;;;;1999.90;999.90;;;;;;;1.71;100.00;162854.75;5035001;28;20076;-72
2021/12/24 08:02:49;;;;;;;1999.90;999.90;;;;;;;1.72;100.00;162857.47;5031127;28;20057;-72
2021/12/24 08:05:19;;;;;;;1999.90;999.90;;;;;;;1.95;100.00;162917.72;5041711;28;20052;-72
2021/12/24 08:07:46;;;;;;;1999.90;999.90;;;;;;;1.75;100.00;162864.31;5038189;28;20077;-72
2021/12/24 08:10:12;;;;;;;1999.90;999.90;;;;;;;2.07;100.00;162950.56;5032109;28;20131;-73
2021/12/24 08:12:39;;;;;;;1999.90;999.90;;;;;;;1.79;100.00;162873.88;5034283;28;20050;-73
2021/12/24 08:15:07;;;;;;;1999.90;999.90;;;;;;;1.98;100.00;162924.53;5040998;28;20541;-73
2021/12/24 08:17:35;;;;;;;1999.90;999.90;;;;;;;1.93;100.00;162912.22;5043348;28;20080;-72
2021/12/24 08:20:03;;;;;;;1999.90;999.90;;;;;;;2.20;100.00;162983.41;5034977;28;20053;-73
2021/12/24 08:22:29;;;;;;;1999.90;999.90;;;;;;;2.14;100.00;162968.34;5032679;28;20131;-73
2021/12/24 08:24:56;;;;;;;1999.90;999.90;;;;;;;2.05;100.00;162945.06;5030798;28;20084;-73
2021/12/24 08:27:23;;;;;;;1999.90;999.90;;;;;;;1.93;100.00;162913.56;5040209;28;20507;-73
2021/12/24 08:29:50;;;;;;;1999.90;999.90;;;;;;;2.11;100.00;162960.13;5037143;28;20049;-72
2021/12/24 08:32:16;;;;;;;1999.90;999.90;;;;;;;1.85;100.00;162890.34;5034417;28;20373;-72
2021/12/24 08:34:43;;;;;;;1999.90;999.90;;;;;;;2.03;100.00;162938.25;5036156;28;20057;-73
2021/12/24 08:37:10;;;;;;;1999.90;999.90;;;;;;;2.20;100.00;162983.41;5037082;28;20078;-73
2021/12/24 08:39:37;;;;;;;1999.90;999.90;;;;;;;2.06;100.00;162947.81;5037663;28;20099;-73
2021/12/24 08:42:04;;;;;;;1999.90;999.90;;;;;;;2.11;100.00;162960.13;5042598;28;20087;-73
2021/12/24 08:44:31;;;;;;;1999.90;999.90;;;;;;;2.23;100.00;162991.63;5039275;28;20048;-73
2021/12/24 08:47:01;;;;;;;1999.90;999.90;;;;;;;2.34;100.00;163021.78;5032316;28;20107;-73
2021/12/24 08:49:29;;;;;;;1999.90;999.90;;;;;;;2.09;100.00;162954.69;5044253;28;20381;-73
2021/12/24 08:51:58;;;;;;;1999.90;999.90;;;;;;;2.16;100.00;162972.47;5039930;28;20698;-73
2021/12/24 08:54:25;;;;;;;1999.90;999.90;;;;;;;2.23;100.00;162991.63;5038776;28;20095;-73
2021/12/24 08:56:53;;;;;;;1999.90;999.90;;;;;;;2.16;100.00;162972.47;5043873;28;20473;-72
2021/12/24 08:59:20;;;;;;;1999.90;999.90;;;;;;;2.15;100.00;162969.75;5040975;28;20092;-73
2021/12/24 09:01:47;;;;;;;1999.90;999.90;;;;;;;2.32;100.00;163016.28;5032235;28;20775;-74
2021/12/24 09:04:14;;;;;;;1999.90;999.90;;;;;;;2.46;100.00;163054.63;5043677;28;20080;-74
2021/12/24 09:06:41;;;;;;;1999.90;999.90;;;;;;;2.34;100.00;163021.78;5037747;28;20049;-73
2021/12/24 09:09:10;;;;;;;1999.90;999.90;;;;;;;2.36;100.00;163027.25;5041625;28;20085;-74
2021/12/24 09:11:39;;;;;;;1999.90;999.90;;;;;;;2.60;100.00;163091.59;5030871;28;20057;-74
2021/12/24 09:14:05;;;;;;;1999.90;999.90;;;;;;;2.41;100.00;163039.56;5035319;28;20053;-74
2021/12/24 09:16:34;;;;;;;1999.90;999.90;;;;;;;2.56;100.00;163079.28;5035707;28;20049;-74
2021/12/24 09:19:06;;;;;;;1999.90;999.90;;;;;;;2.83;100.00;163151.91;5035684;28;20334;-74
2021/12/24 09:21:34;;;;;;;1999.90;999.90;;;;;;;2.50;100.00;163064.25;5069033;28;20061;-74
2021/12/24 09:24:02;;;;;;;1999.90;999.90;;;;;;;2.40;100.00;163036.84;5045522;28;20049;-72
2021/12/24 09:26:32;;;;;;;1999.90;999.90;;;;;;;2.60;100.00;163091.59;5043551;28;20049;-73
2021/12/24 09:29:00;;;;;;;1999.90;999.90;;;;;;;2.58;100.00;163084.78;5042471;28;20068;-74
2021/12/24 09:31:28;;;;;;;1999.90;999.90;;;;;;;2.66;100.00;163105.34;5045674;28;20076;-74
2021/12/24 09:33:55;;;;;;;1999.90;999.90;;;;;;;2.59;100.00;163087.50;5035988;28;20091;-74
2021/12/24 09:36:26;;;;;;;1999.90;999.90;;;;;;;2.61;100.00;163094.34;5045167;28;20087;-74
2021/12/24 09:38:55;;;;;;;1999.90;999.90;;;;;;;2.58;100.00;163086.16;5043829;28;20056;-74
2021/12/24 09:41:23;;;;;;;1999.90;999.90;;;;;;;2.58;100.00;163084.78;5048060;28;20406;-74
2021/12/24 09:43:51;;;;;;;1999.90;999.90;;;;;;;2.74;100.00;163127.22;5037260;28;20543;-74
2021/12/24 09:46:18;;;;;;;1999.90;999.90;;;;;;;2.86;100.00;163158.72;5038908;28;20384;-73
2021/12/24 09:48:44;;;;;;;1999.90;999.90;;;;;;;2.85;100.00;163156.03;5043067;28;20135;-74
2021/12/24 09:51:11;;;;;;;1999.90;999.90;;;;;;;3.03;100.00;163203.97;5047545;28;20049;-73
2021/12/24 09:53:37;;;;;;;1999.90;999.90;;;;;;;2.97;100.00;163190.25;5045499;28;20107;-73
2021/12/24 09:56:06;;;;;;;1999.90;999.90;;;;;;;2.94;100.00;163180.66;5042910;28;20163;-74
2021/12/24 09:58:33;;;;;;;1999.90;999.90;;;;;;;2.97;100.00;163190.25;5079296;28;20470;-74
2021/12/24 10:01:00;;;;;;;1999.90;999.90;;;;;;;2.98;100.00;163191.66;5042627;28;20450;-74
2021/12/24 10:03:37;;;;;;;1999.90;999.90;;;;;;;3.08;100.00;163219.06;5047601;28;20132;-74
2021/12/24 10:06:05;;;;;;;1999.90;999.90;;;;;;;3.35;100.00;163290.31;5048856;28;20102;-74
2021/12/24 10:08:32;;;;;;;1999.90;999.90;;;;;;;3.50;100.00;163331.41;5038739;28;20134;-74
2021/12/24 10:11:04;;;;;;;1999.90;999.90;;;;;;;3.34;100.00;163288.91;5040865;28;20099;-74
2021/12/24 10:13:38;;;;;;;1999.90;999.90;;;;;;;3.45;100.00;163317.69;5037997;28;20049;-74
2021/12/24 10:16:13;;;;;;;1999.90;999.90;;;;;;;3.23;100.00;163258.78;5039956;28;20053;-74
2021/12/24 10:18:46;;;;;;;1999.90;999.90;;;;;;;3.40;100.00;163302.66;5040063;28;20048;-74
2021/12/24 10:21:20;;;;;;;1999.90;999.90;;;;;;;3.34;100.00;163287.56;5044144;28;20053;-75
2021/12/24 10:23:56;;;;;;;1999.90;999.90;;;;;;;3.41;100.00;163306.75;5041091;28;20049;-75
2021/12/24 10:26:25;;;;;;;1999.90;999.90;;;;;;;3.32;100.00;163282.03;5043716;28;20053;-76
2021/12/24 10:28:55;;;;;;;1999.90;999.90;;;;;;;3.45;100.00;163317.69;5047686;28;20102;-75
2021/12/24 10:31:40;;;;;;;1999.90;999.90;;;;;;;3.45;100.00;163317.69;5041691;28;20057;-75
2021/12/24 10:34:12;;;;;;;1999.90;999.90;;;;;;;3.41;100.00;163305.34;5038948;28;20107;-76
2021/12/24 10:36:59;;;;;;;1999.90;999.90;;;;;;;3.53;100.00;163339.63;5040416;28;20077;-75
2021/12/24 10:39:54;;;;;;;1999.90;999.90;;;;;;;3.61;100.00;163358.81;5045430;28;20045;-75
2021/12/24 10:42:35;;;;;;;1999.90;999.90;;;;;;;3.77;100.00;163401.34;5041682;28;20107;-75
2021/12/24 10:45:08;;;;;;;1999.90;999.90;;;;;;;3.64;100.00;163367.03;5040831;28;20088;-75
2021/12/24 10:47:40;;;;;;;1999.90;999.90;;;;;;;3.39;100.00;163299.88;5043181;28;20056;-75
2021/12/24 10:55:24;;;;;;;1999.90;999.90;;;;;;;3.45;100.00;163317.69;5044696;28;20471;-75
2021/12/24 10:57:53;;;;;;;1999.90;999.90;;;;;;;3.52;100.00;163335.53;5062179;28;20068;-75
2021/12/24 11:00:31;;;;;;;1999.90;999.90;;;;;;;3.62;100.00;163361.59;5044081;28;20107;-74
2021/12/24 11:03:14;;;;;;;1999.90;999.90;;;;;;;4.10;100.00;163490.44;5042606;28;20052;-74
2021/12/24 11:05:43;;;;;;;1999.90;999.90;;;;;;;4.36;100.00;163558.97;5048147;28;20083;-74
2021/12/24 11:08:13;;;;;;;1999.90;999.90;;;;;;;4.29;100.00;163539.78;5034268;28;20395;-74
2021/12/24 11:10:51;;;;;;;1999.90;999.90;;;;;;;4.29;100.00;163539.78;5042139;28;20465;-74
2021/12/24 11:13:29;;;;;;;1999.90;999.90;;;;;;;4.22;100.00;163523.31;5045693;28;20052;-74
2021/12/24 11:15:58;;;;;;;1999.90;999.90;;;;;;;4.28;100.00;163538.41;5038317;28;20130;-73
2021/12/24 11:18:46;;;;;;;1999.90;999.90;;;;;;;4.32;100.00;163549.41;5043859;28;20041;-73
2021/12/24 11:21:20;;;;;;;1999.90;999.90;;;;;;;4.39;100.00;163567.22;5039306;28;20454;-72
2021/12/24 11:23:48;;;;;;;1999.90;999.90;;;;;;;4.04;100.00;163475.34;5039114;28;20041;-73
2021/12/24 11:26:17;;;;;;;1999.90;999.90;;;;;;;4.22;100.00;163521.97;5037298;28;20385;-73
2021/12/24 11:28:44;;;;;;;1999.90;999.90;;;;;;;4.08;100.00;163484.97;5043185;28;20323;-73
2021/12/24 11:31:15;;;;;;;1999.90;999.90;;;;;;;4.36;100.00;163558.97;5044973;28;20087;-73
2021/12/24 11:33:44;;;;;;;1999.90;999.90;;;;;;;4.62;100.00;163627.59;5043367;28;20143;-73
2021/12/24 11:36:15;;;;;;;1999.90;999.90;;;;;;;4.63;100.00;163631.72;5045026;28;20053;-72
2021/12/24 11:38:53;;;;;;;1999.90;999.90;;;;;;;4.80;100.00;163676.97;5039968;28;20080;-72
2021/12/24 11:41:25;;;;;;;1999.90;999.90;;;;;;;4.55;100.00;163611.09;5043319;28;20076;-72
2021/12/24 11:43:55;;;;;;;1999.90;999.90;;;;;;;4.45;100.00;163583.72;5033809;28;20053;-72
2021/12/24 11:46:26;;;;;;;1999.90;999.90;;;;;;;4.43;100.00;163576.84;5040747;28;20126;-72
2021/12/24 11:48:54;;;;;;;1999.90;999.90;;;;;;;4.29;100.00;163541.19;5044615;28;20068;-72
2021/12/24 11:51:24;;;;;;;1999.90;999.90;;;;;;;4.67;100.00;163641.28;5044078;28;20103;-72
2021/12/24 11:53:55;;;;;;;1999.90;999.90;;;;;;;4.52;100.00;163601.50;5041105;28;20090;-73
2021/12/24 11:56:23;;;;;;;1999.90;999.90;;;;;;;4.47;100.00;163589.19;5042654;28;20061;-73
2021/12/24 11:58:55;;;;;;;1999.90;999.90;;;;;;;4.71;100.00;163652.28;5043730;28;20045;-73
2021/12/24 12:01:27;;;;;;;1999.90;999.90;;;;;;;4.75;100.00;163663.25;5037631;28;20053;-73
2021/12/24 12:03:57;;;;;;;1999.90;999.90;;;;;;;4.79;100.00;163672.84;5039338;28;20045;-74
2021/12/24 12:06:23;;;;;;;1999.90;999.90;;;;;;;4.81;100.00;163678.31;5033627;28;20434;-75
2021/12/24 12:08:57;;;;;;;1999.90;999.90;;;;;;;4.65;100.00;163635.81;5036363;28;20434;-74
2021/12/24 12:11:34;;;;;;;1999.90;999.90;;;;;;;4.62;100.00;163627.59;5037671;28;20438;-75
2021/12/24 12:14:04;;;;;;;1999.90;999.90;;;;;;;4.62;100.00;163627.59;5035425;28;20057;-76
2021/12/24 12:16:42;;;;;;;1999.90;999.90;;;;;;;4.41;100.00;163574.06;5041951;28;20057;-77
2021/12/24 12:22:17;;;;;;;1999.90;999.90;;;;;;;4.53;100.00;163604.28;5040191;28;20053;-77
2021/12/24 12:25:00;;;;;;;1999.90;999.90;;;;;;;4.59;100.00;163620.72;5046415;28;20065;-77
2021/12/24 12:27:51;;;;;;;1999.90;999.90;;;;;;;4.43;100.00;163578.19;5040981;28;20323;-78
2021/12/24 12:30:42;;;;;;;1999.90;999.90;;;;;;;4.72;100.00;163655.03;5040945;28;20110;-78
2021/12/24 12:33:15;;;;;;;1999.90;999.90;;;;;;;4.74;100.00;163660.50;5040996;28;20147;-77
2021/12/24 12:35:44;;;;;;;1999.90;999.90;;;;;;;4.87;100.00;163694.81;5043885;28;20254;-77
2021/12/24 12:38:22;;;;;;;1999.90;999.90;;;;;;;4.74;100.00;163660.50;5049232;28;20080;-76
2021/12/24 12:40:49;;;;;;;1999.90;999.90;;;;;;;5.01;100.00;163731.84;5043703;28;20048;-77
2021/12/24 12:43:19;;;;;;;1999.90;999.90;;;;;;;4.86;100.00;163693.41;5044475;28;20049;-78
2021/12/24 12:45:47;;;;;;;1999.90;999.90;;;;;;;4.82;100.00;163682.44;5053938;28;20048;-77
2021/12/24 12:48:23;;;;;;;1999.90;999.90;;;;;;;4.67;100.00;163641.28;5041037;28;20279;-77
2021/12/24 12:50:58;;;;;;;1999.90;999.90;;;;;;;4.81;100.00;163678.31;5043166;28;20552;-76